This is the latest recevied weather packets stored in our database for station/object EB1HRW. If no packets are shown the sender has not sent any weather packets the latest 10 day(s).
| Time | Temp. | Humidity | Pressure | Rain* | Wind** | Luminosity | Snow |
|---|---|---|---|---|---|---|---|
| 1777374942 | 20° C | 60% | 1009.7 hPa | 0 mm | - | - | - |
| 1777374042 | 20° C | 60% | 1009.8 hPa | 0 mm | - | - | - |
| 1777373142 | 20° C | 60% | 1010 hPa | 0 mm | - | - | - |
| 1777372244 | 19.44° C | 65% | 1010.1 hPa | 0 mm | - | - | - |
| 1777371344 | 18.89° C | 66% | 1010.3 hPa | 0 mm | - | - | - |
| 1777370444 | 18.89° C | 72% | 1010.5 hPa | 0 mm | - | - | - |
| 1777369543 | 18.33° C | 74% | 1010.6 hPa | 0 mm | - | - | - |
| 1777368643 | 17.78° C | 76% | 1010.8 hPa | 0 mm | - | - | - |
| 1777367743 | 17.22° C | 76% | 1010.8 hPa | 0 mm | - | - | - |
| 1777366843 | 16.67° C | 78% | 1010.8 hPa | 0 mm | - | - | - |
| 1777365943 | 16.11° C | 80% | 1011 hPa | 0 mm | - | - | - |
| 1777365043 | 16.11° C | 81% | 1011 hPa | 0 mm | - | - | - |
| 1777364144 | 15.56° C | 83% | 1011.1 hPa | 0 mm | - | - | - |
| 1777363244 | 15° C | 83% | 1011.1 hPa | 0 mm | - | - | - |
| 1777362344 | 14.44° C | 84% | 1011.1 hPa | 0 mm | - | - | - |
| 1777361443 | 13.89° C | 84% | 1011 hPa | 0 mm | - | - | - |
| 1777360543 | 13.33° C | 84% | 1011 hPa | 0 mm | - | - | - |
| 1777359643 | 13.33° C | 82% | 1010.9 hPa | 0 mm | - | - | - |
| 1777358742 | 12.78° C | 81% | 1010.9 hPa | 0 mm | - | - | - |
| 1777357844 | 12.22° C | 80% | 1010.9 hPa | 0 mm | - | - | - |
| 1777353344 | 12.22° C | 79% | 1010.8 hPa | 0 mm | - | - | - |
| 1777352444 | 12.22° C | 80% | 1010.9 hPa | 0 mm | - | - | - |
| 1777351543 | 12.78° C | 80% | 1010.8 hPa | 0 mm | - | - | - |
| 1777350643 | 12.78° C | 81% | 1010.9 hPa | 0 mm | - | - | - |
| 1777349743 | 12.78° C | 82% | 1010.9 hPa | 0 mm | - | - | - |
* Rain latest hour (hover to see other rain measurements)
** Current wind speed in m/s (hover to see current wind gust speed)